sensor_id;sensor_type;location;lat;lon;timestamp;pressure;altitude;pressure_sealevel;temperature;humidity
10518;BME280;5307;42.548;22.968;2023-11-19T00:00:28;93788.50;;;2.59;79.04
10518;BME280;5307;42.548;22.968;2023-11-19T00:02:55;93790.47;;;2.55;78.69
10518;BME280;5307;42.548;22.968;2023-11-19T00:05:22;93793.16;;;2.52;78.62
10518;BME280;5307;42.548;22.968;2023-11-19T00:14:30;93793.50;;;2.61;79.51
10518;BME280;5307;42.548;22.968;2023-11-19T00:16:57;93794.59;;;2.67;79.77
10518;BME280;5307;42.548;22.968;2023-11-19T00:19:24;93793.84;;;2.63;79.25
10518;BME280;5307;42.548;22.968;2023-11-19T00:21:51;93796.06;;;2.75;79.33
10518;BME280;5307;42.548;22.968;2023-11-19T00:24:18;93804.59;;;2.70;79.00
10518;BME280;5307;42.548;22.968;2023-11-19T00:26:46;93811.50;;;2.71;79.09
10518;BME280;5307;42.548;22.968;2023-11-19T00:29:12;93821.13;;;2.72;78.61
10518;BME280;5307;42.548;22.968;2023-11-19T00:31:41;93813.78;;;2.76;78.39
10518;BME280;5307;42.548;22.968;2023-11-19T00:34:07;93817.66;;;2.72;79.05
10518;BME280;5307;42.548;22.968;2023-11-19T00:36:34;93813.69;;;2.87;78.52
10518;BME280;5307;42.548;22.968;2023-11-19T00:39:01;93812.22;;;2.79;78.48
10518;BME280;5307;42.548;22.968;2023-11-19T00:41:28;93809.06;;;2.87;78.87
10518;BME280;5307;42.548;22.968;2023-11-19T00:43:55;93816.81;;;2.82;78.65
10518;BME280;5307;42.548;22.968;2023-11-19T00:46:22;93816.88;;;2.75;78.31
10518;BME280;5307;42.548;22.968;2023-11-19T00:48:51;93829.94;;;2.76;78.79
10518;BME280;5307;42.548;22.968;2023-11-19T00:51:18;93833.81;;;2.75;78.82
10518;BME280;5307;42.548;22.968;2023-11-19T00:53:45;93825.28;;;2.84;78.68
10518;BME280;5307;42.548;22.968;2023-11-19T00:56:12;93831.06;;;2.82;78.20
10518;BME280;5307;42.548;22.968;2023-11-19T00:58:39;93837.25;;;2.79;77.72
10518;BME280;5307;42.548;22.968;2023-11-19T01:01:07;93840.00;;;2.72;78.82
10518;BME280;5307;42.548;22.968;2023-11-19T01:03:34;93823.75;;;2.79;78.85
10518;BME280;5307;42.548;22.968;2023-11-19T01:06:02;93829.94;;;2.76;78.97
10518;BME280;5307;42.548;22.968;2023-11-19T01:08:30;93819.28;;;2.62;79.65
10518;BME280;5307;42.548;22.968;2023-11-19T01:10:57;93818.53;;;2.58;79.58
10518;BME280;5307;42.548;22.968;2023-11-19T01:13:25;93810.06;;;2.59;80.42
10518;BME280;5307;42.548;22.968;2023-11-19T01:15:52;93816.25;;;2.56;79.77
10518;BME280;5307;42.548;22.968;2023-11-19T01:18:19;93817.03;;;2.53;79.66
10518;BME280;5307;42.548;22.968;2023-11-19T01:20:45;93825.44;;;2.62;80.47
10518;BME280;5307;42.548;22.968;2023-11-19T01:23:13;93832.38;;;2.60;80.08
10518;BME280;5307;42.548;22.968;2023-11-19T01:25:40;93832.81;;;2.55;80.59
10518;BME280;5307;42.548;22.968;2023-11-19T01:28:07;93838.50;;;2.64;80.18
10518;BME280;5307;42.548;22.968;2023-11-19T01:30:34;93833.19;;;2.53;79.90
10518;BME280;5307;42.548;22.968;2023-11-19T01:33:01;93842.50;;;2.45;80.02
10518;BME280;5307;42.548;22.968;2023-11-19T01:35:27;93821.28;;;2.51;79.08
10518;BME280;5307;42.548;22.968;2023-11-19T01:37:54;93843.22;;;2.56;79.65
10518;BME280;5307;42.548;22.968;2023-11-19T01:40:22;93837.91;;;2.42;79.42
10518;BME280;5307;42.548;22.968;2023-11-19T01:42:49;93843.25;;;2.49;79.11
10518;BME280;5307;42.548;22.968;2023-11-19T01:45:22;93845.84;;;2.63;79.12
10518;BME280;5307;42.548;22.968;2023-11-19T01:47:51;93859.72;;;2.62;79.16
10518;BME280;5307;42.548;22.968;2023-11-19T01:50:18;93860.53;;;2.55;79.12
10518;BME280;5307;42.548;22.968;2023-11-19T01:52:46;93865.63;;;2.43;79.18
10518;BME280;5307;42.548;22.968;2023-11-19T01:55:13;93865.19;;;2.48;79.27
10518;BME280;5307;42.548;22.968;2023-11-19T01:57:41;93858.59;;;2.59;79.45
10518;BME280;5307;42.548;22.968;2023-11-19T02:00:09;93852.56;;;2.37;79.55
10518;BME280;5307;42.548;22.968;2023-11-19T02:02:38;93834.81;;;2.44;79.96
10518;BME280;5307;42.548;22.968;2023-11-19T02:05:05;93840.16;;;2.51;79.93
10518;BME280;5307;42.548;22.968;2023-11-19T02:07:33;93832.47;;;2.49;79.57
10518;BME280;5307;42.548;22.968;2023-11-19T02:09:59;93856.66;;;2.60;79.49
10518;BME280;5307;42.548;22.968;2023-11-19T02:12:27;93845.88;;;2.60;79.35
10518;BME280;5307;42.548;22.968;2023-11-19T02:14:56;93864.66;;;2.71;78.37
10518;BME280;5307;42.548;22.968;2023-11-19T02:17:28;93856.66;;;2.60;78.50
10518;BME280;5307;42.548;22.968;2023-11-19T02:19:56;93870.78;;;2.75;78.78
10518;BME280;5307;42.548;22.968;2023-11-19T02:22:23;93867.06;;;2.58;78.31
10518;BME280;5307;42.548;22.968;2023-11-19T02:24:53;93867.06;;;2.58;78.76
10518;BME280;5307;42.548;22.968;2023-11-19T02:27:28;93872.34;;;2.72;78.37
10518;BME280;5307;42.548;22.968;2023-11-19T02:29:59;93866.13;;;2.79;78.18
10518;BME280;5307;42.548;22.968;2023-11-19T02:32:27;93854.78;;;2.50;78.69
10518;BME280;5307;42.548;22.968;2023-11-19T02:34:56;93842.84;;;2.51;79.17
10518;BME280;5307;42.548;22.968;2023-11-19T02:37:23;93846.66;;;2.57;79.01
10518;BME280;5307;42.548;22.968;2023-11-19T02:39:49;93850.91;;;2.58;79.74
10518;BME280;5307;42.548;22.968;2023-11-19T02:42:16;93842.75;;;2.65;79.55
10518;BME280;5307;42.548;22.968;2023-11-19T02:44:44;93861.81;;;2.36;78.91
10518;BME280;5307;42.548;22.968;2023-11-19T02:47:12;93858.25;;;2.54;79.25
10518;BME280;5307;42.548;22.968;2023-11-19T02:49:39;93861.03;;;2.40;79.34
10518;BME280;5307;42.548;22.968;2023-11-19T02:52:07;93859.38;;;2.56;78.80
10518;BME280;5307;42.548;22.968;2023-11-19T02:54:35;93851.72;;;2.48;79.43
10518;BME280;5307;42.548;22.968;2023-11-19T02:57:17;93857.19;;;2.33;79.51
10518;BME280;5307;42.548;22.968;2023-11-19T02:59:45;93845.16;;;2.49;79.10
10518;BME280;5307;42.548;22.968;2023-11-19T03:02:13;93849.41;;;2.50;79.00
10518;BME280;5307;42.548;22.968;2023-11-19T03:04:41;93848.75;;;2.31;78.93
10518;BME280;5307;42.548;22.968;2023-11-19T03:07:10;93849.84;;;2.37;78.89
10518;BME280;5307;42.548;22.968;2023-11-19T03:09:39;93846.31;;;2.55;78.64
10518;BME280;5307;42.548;22.968;2023-11-19T03:12:07;93859.34;;;2.60;78.92
10518;BME280;5307;42.548;22.968;2023-11-19T03:14:34;93856.22;;;2.68;79.28
10518;BME280;5307;42.548;22.968;2023-11-19T03:17:00;93858.66;;;2.49;79.46
10518;BME280;5307;42.548;22.968;2023-11-19T03:19:29;93853.63;;;2.54;79.21
10518;BME280;5307;42.548;22.968;2023-11-19T03:21:55;93850.84;;;2.65;79.21
10518;BME280;5307;42.548;22.968;2023-11-19T03:24:22;93865.09;;;2.62;79.28
10518;BME280;5307;42.548;22.968;2023-11-19T03:26:50;93858.50;;;2.70;78.94
10518;BME280;5307;42.548;22.968;2023-11-19T03:29:16;93867.91;;;2.48;78.75
10518;BME280;5307;42.548;22.968;2023-11-19T03:31:43;93862.38;;;2.69;79.75
10518;BME280;5307;42.548;22.968;2023-11-19T03:34:11;93864.56;;;2.81;80.14
10518;BME280;5307;42.548;22.968;2023-11-19T03:36:39;93861.31;;;2.56;80.17
10518;BME280;5307;42.548;22.968;2023-11-19T03:39:06;93873.19;;;2.62;80.18
10518;BME280;5307;42.548;22.968;2023-11-19T03:41:33;93882.00;;;2.70;79.54
10518;BME280;5307;42.548;22.968;2023-11-19T03:44:00;93879.28;;;2.73;79.69
10518;BME280;5307;42.548;22.968;2023-11-19T03:46:26;93884.81;;;2.52;79.79
10518;BME280;5307;42.548;22.968;2023-11-19T03:48:55;93893.13;;;2.75;79.95
10518;BME280;5307;42.548;22.968;2023-11-19T03:51:21;93900.53;;;2.64;80.01
10518;BME280;5307;42.548;22.968;2023-11-19T03:53:50;93904.72;;;2.72;79.09
10518;BME280;5307;42.548;22.968;2023-11-19T03:56:16;93912.81;;;2.72;79.01
10518;BME280;5307;42.548;22.968;2023-11-19T03:58:43;93906.59;;;2.82;79.15
10518;BME280;5307;42.548;22.968;2023-11-19T04:01:11;93905.84;;;2.75;79.09
10518;BME280;5307;42.548;22.968;2023-11-19T04:03:39;93909.38;;;2.68;78.73
10518;BME280;5307;42.548;22.968;2023-11-19T04:06:06;93913.50;;;2.83;79.19
10518;BME280;5307;42.548;22.968;2023-11-19T04:08:33;93908.84;;;2.87;78.77
10518;BME280;5307;42.548;22.968;2023-11-19T04:11:03;93915.41;;;2.86;79.41
10518;BME280;5307;42.548;22.968;2023-11-19T04:13:29;93914.59;;;2.89;79.73
10518;BME280;5307;42.548;22.968;2023-11-19T04:15:56;93922.31;;;2.87;79.76
10518;BME280;5307;42.548;22.968;2023-11-19T04:18:23;93924.25;;;2.87;79.38
10518;BME280;5307;42.548;22.968;2023-11-19T04:20:50;93918.13;;;2.83;78.96
10518;BME280;5307;42.548;22.968;2023-11-19T04:23:17;93922.44;;;2.66;79.78
10518;BME280;5307;42.548;22.968;2023-11-19T04:25:43;93919.84;;;2.55;79.19
10518;BME280;5307;42.548;22.968;2023-11-19T04:28:11;93916.41;;;2.48;79.35
10518;BME280;5307;42.548;22.968;2023-11-19T04:30:38;93924.75;;;2.71;79.82
10518;BME280;5307;42.548;22.968;2023-11-19T04:33:05;93920.91;;;2.72;80.65
10518;BME280;5307;42.548;22.968;2023-11-19T04:35:32;93920.59;;;2.56;79.48
10518;BME280;5307;42.548;22.968;2023-11-19T04:37:58;93928.72;;;2.49;80.21
10518;BME280;5307;42.548;22.968;2023-11-19T04:40:25;93932.47;;;2.65;79.76
10518;BME280;5307;42.548;22.968;2023-11-19T04:42:52;93932.06;;;2.71;79.53
10518;BME280;5307;42.548;22.968;2023-11-19T04:45:20;93924.69;;;2.78;79.22
10518;BME280;5307;42.548;22.968;2023-11-19T04:47:47;93935.50;;;2.75;79.97
10518;BME280;5307;42.548;22.968;2023-11-19T04:50:14;93936.31;;;2.72;79.79
10518;BME280;5307;42.548;22.968;2023-11-19T04:52:41;93930.84;;;2.82;80.07
10518;BME280;5307;42.548;22.968;2023-11-19T04:55:10;93922.16;;;2.50;79.26
10518;BME280;5307;42.548;22.968;2023-11-19T04:57:38;93930.50;;;2.73;79.13
10518;BME280;5307;42.548;22.968;2023-11-19T05:00:05;93939.34;;;2.77;79.50
10518;BME280;5307;42.548;22.968;2023-11-19T05:02:34;93944.00;;;2.73;80.80
10518;BME280;5307;42.548;22.968;2023-11-19T05:05:01;93942.81;;;2.74;79.73
10518;BME280;5307;42.548;22.968;2023-11-19T05:07:29;93949.31;;;2.80;80.10
10518;BME280;5307;42.548;22.968;2023-11-19T05:13:36;93955.19;;;2.72;79.96
10518;BME280;5307;42.548;22.968;2023-11-19T05:16:03;93954.34;;;2.82;79.38
10518;BME280;5307;42.548;22.968;2023-11-19T05:18:31;93963.25;;;2.75;79.14
10518;BME280;5307;42.548;22.968;2023-11-19T05:20:58;93961.47;;;2.47;78.96
10518;BME280;5307;42.548;22.968;2023-11-19T05:23:25;93951.78;;;2.57;79.00
10518;BME280;5307;42.548;22.968;2023-11-19T05:25:52;93952.88;;;2.70;79.32
10518;BME280;5307;42.548;22.968;2023-11-19T05:28:19;93949.50;;;2.52;78.82
10518;BME280;5307;42.548;22.968;2023-11-19T05:30:45;93954.06;;;2.62;79.26
10518;BME280;5307;42.548;22.968;2023-11-19T05:33:12;93954.13;;;2.48;78.39
10518;BME280;5307;42.548;22.968;2023-11-19T05:35:40;93963.31;;;2.61;79.63
10518;BME280;5307;42.548;22.968;2023-11-19T05:38:07;93972.09;;;2.76;78.80
10518;BME280;5307;42.548;22.968;2023-11-19T05:40:34;93969.06;;;2.63;78.67
10518;BME280;5307;42.548;22.968;2023-11-19T05:43:16;93971.06;;;2.48;80.06
10518;BME280;5307;42.548;22.968;2023-11-19T05:45:43;93971.06;;;2.48;79.16
10518;BME280;5307;42.548;22.968;2023-11-19T05:48:10;93981.03;;;2.62;79.99
10518;BME280;5307;42.548;22.968;2023-11-19T05:51:00;93970.97;;;2.73;80.04
10518;BME280;5307;42.548;22.968;2023-11-19T05:53:28;93965.91;;;2.82;79.27
10518;BME280;5307;42.548;22.968;2023-11-19T05:55:55;93971.31;;;2.82;79.87
10518;BME280;5307;42.548;22.968;2023-11-19T05:58:23;93971.78;;;2.63;79.58
10518;BME280;5307;42.548;22.968;2023-11-19T06:00:54;93978.75;;;2.53;80.03
10518;BME280;5307;42.548;22.968;2023-11-19T06:03:21;93991.78;;;2.65;80.52
10518;BME280;5307;42.548;22.968;2023-11-19T06:05:48;93992.91;;;2.72;80.38
10518;BME280;5307;42.548;22.968;2023-11-19T06:08:16;93998.47;;;2.40;80.41
10518;BME280;5307;42.548;22.968;2023-11-19T06:10:44;93991.84;;;2.55;80.33
10518;BME280;5307;42.548;22.968;2023-11-19T06:13:11;93999.19;;;2.54;79.53
10518;BME280;5307;42.548;22.968;2023-11-19T06:15:41;93989.66;;;2.28;80.01
10518;BME280;5307;42.548;22.968;2023-11-19T06:18:08;93980.38;;;2.36;79.79
10518;BME280;5307;42.548;22.968;2023-11-19T06:20:37;93986.47;;;2.55;80.57
10518;BME280;5307;42.548;22.968;2023-11-19T06:23:04;93983.44;;;2.42;80.73
10518;BME280;5307;42.548;22.968;2023-11-19T06:25:32;93974.84;;;2.65;80.52
10518;BME280;5307;42.548;22.968;2023-11-19T06:28:00;93989.16;;;2.55;80.08
10518;BME280;5307;42.548;22.968;2023-11-19T06:30:27;93984.13;;;2.57;80.14
10518;BME280;5307;42.548;22.968;2023-11-19T06:32:56;93984.22;;;2.43;80.45
10518;BME280;5307;42.548;22.968;2023-11-19T06:35:22;93977.19;;;2.59;80.03
10518;BME280;5307;42.548;22.968;2023-11-19T06:37:49;93986.16;;;2.31;79.71
10518;BME280;5307;42.548;22.968;2023-11-19T06:40:16;93989.59;;;2.35;80.71
10518;BME280;5307;42.548;22.968;2023-11-19T06:42:44;93982.78;;;2.13;80.96
10518;BME280;5307;42.548;22.968;2023-11-19T06:45:11;93994.31;;;2.14;80.74
10518;BME280;5307;42.548;22.968;2023-11-19T06:47:38;93993.44;;;2.42;80.81
10518;BME280;5307;42.548;22.968;2023-11-19T06:50:06;93989.59;;;2.35;79.96
10518;BME280;5307;42.548;22.968;2023-11-19T06:52:34;93988.53;;;2.15;80.06
10518;BME280;5307;42.548;22.968;2023-11-19T06:55:04;93995.44;;;2.20;80.53
10518;BME280;5307;42.548;22.968;2023-11-19T06:57:32;94007.72;;;2.31;80.30
10518;BME280;5307;42.548;22.968;2023-11-19T07:00:00;94002.75;;;2.26;80.28
10518;BME280;5307;42.548;22.968;2023-11-19T07:02:26;94002.00;;;2.15;79.89
10518;BME280;5307;42.548;22.968;2023-11-19T07:04:53;94003.59;;;1.98;80.38
10518;BME280;5307;42.548;22.968;2023-11-19T07:07:20;93998.91;;;2.27;80.83
10518;BME280;5307;42.548;22.968;2023-11-19T07:09:47;94000.47;;;2.18;80.21
10518;BME280;5307;42.548;22.968;2023-11-19T07:12:14;94010.50;;;2.06;80.62
10518;BME280;5307;42.548;22.968;2023-11-19T07:14:41;94007.81;;;1.96;81.02
10518;BME280;5307;42.548;22.968;2023-11-19T07:17:09;94001.56;;;2.24;80.26
10518;BME280;5307;42.548;22.968;2023-11-19T07:19:36;93998.81;;;2.45;80.68
10518;BME280;5307;42.548;22.968;2023-11-19T07:22:04;94000.38;;;2.39;79.60
10518;BME280;5307;42.548;22.968;2023-11-19T07:24:31;93987.75;;;2.25;79.58
10518;BME280;5307;42.548;22.968;2023-11-19T07:26:58;94012.81;;;2.12;80.49
10518;BME280;5307;42.548;22.968;2023-11-19T07:29:26;94016.22;;;2.19;79.82
10518;BME280;5307;42.548;22.968;2023-11-19T07:31:52;94023.94;;;2.06;80.48
10518;BME280;5307;42.548;22.968;2023-11-19T07:34:20;94023.56;;;2.15;80.28
10518;BME280;5307;42.548;22.968;2023-11-19T07:36:47;94036.22;;;2.22;80.69
10518;BME280;5307;42.548;22.968;2023-11-19T07:39:14;94033.56;;;2.15;79.62
10518;BME280;5307;42.548;22.968;2023-11-19T07:41:41;94022.41;;;2.09;79.28
10518;BME280;5307;42.548;22.968;2023-11-19T07:44:07;94028.16;;;2.25;80.04
10518;BME280;5307;42.548;22.968;2023-11-19T07:46:34;94030.47;;;2.09;79.17
10518;BME280;5307;42.548;22.968;2023-11-19T07:49:01;94028.16;;;2.11;79.72
10518;BME280;5307;42.548;22.968;2023-11-19T07:51:36;94023.53;;;2.29;80.15
10518;BME280;5307;42.548;22.968;2023-11-19T07:54:03;94021.16;;;2.38;79.11
10518;BME280;5307;42.548;22.968;2023-11-19T07:56:30;94028.13;;;2.32;78.55
10518;BME280;5307;42.548;22.968;2023-11-19T07:58:58;94028.56;;;2.13;78.61
10518;BME280;5307;42.548;22.968;2023-11-19T08:01:24;94026.59;;;2.31;78.94
10518;BME280;5307;42.548;22.968;2023-11-19T08:03:51;94032.28;;;2.51;79.71
10518;BME280;5307;42.548;22.968;2023-11-19T08:06:19;94032.66;;;2.57;79.42
10518;BME280;5307;42.548;22.968;2023-11-19T08:08:47;94033.50;;;2.40;78.78
10518;BME280;5307;42.548;22.968;2023-11-19T08:11:14;94048.78;;;2.64;79.24
10518;BME280;5307;42.548;22.968;2023-11-19T08:13:41;94050.34;;;2.61;78.31
10518;BME280;5307;42.548;22.968;2023-11-19T08:16:08;94058.09;;;2.49;78.29
10518;BME280;5307;42.548;22.968;2023-11-19T08:18:36;94058.88;;;2.46;77.93
10518;BME280;5307;42.548;22.968;2023-11-19T08:21:03;94053.09;;;2.54;77.81
10518;BME280;5307;42.548;22.968;2023-11-19T08:23:30;94049.66;;;2.43;77.67
10518;BME280;5307;42.548;22.968;2023-11-19T08:25:58;94058.78;;;2.74;77.93
10518;BME280;5307;42.548;22.968;2023-11-19T08:28:25;94049.63;;;2.47;77.55
10518;BME280;5307;42.548;22.968;2023-11-19T08:30:52;94051.50;;;2.67;77.17
10518;BME280;5307;42.548;22.968;2023-11-19T08:33:18;94042.72;;;2.38;76.63
10518;BME280;5307;42.548;22.968;2023-11-19T08:35:47;94042.56;;;2.78;77.34
10518;BME280;5307;42.548;22.968;2023-11-19T08:38:14;94050.28;;;2.83;76.37
10518;BME280;5307;42.548;22.968;2023-11-19T08:40:41;94061.94;;;2.48;76.51
10518;BME280;5307;42.548;22.968;2023-11-19T08:43:09;94072.66;;;2.69;77.03
10518;BME280;5307;42.548;22.968;2023-11-19T08:45:36;94084.91;;;2.88;77.71
10518;BME280;5307;42.548;22.968;2023-11-19T08:48:03;94081.41;;;2.98;76.75
10518;BME280;5307;42.548;22.968;2023-11-19T08:50:30;94071.00;;;3.00;76.65
10518;BME280;5307;42.548;22.968;2023-11-19T08:52:57;94072.56;;;2.90;76.27
10518;BME280;5307;42.548;22.968;2023-11-19T08:55:23;94077.19;;;2.90;75.89
10518;BME280;5307;42.548;22.968;2023-11-19T08:57:51;94077.91;;;3.05;77.10
10518;BME280;5307;42.548;22.968;2023-11-19T09:00:20;94077.09;;;3.11;76.34
10518;BME280;5307;42.548;22.968;2023-11-19T09:02:46;94071.69;;;3.15;76.38
10518;BME280;5307;42.548;22.968;2023-11-19T09:05:13;94075.41;;;3.39;75.52
10518;BME280;5307;42.548;22.968;2023-11-19T09:07:40;94072.16;;;2.95;75.61
10518;BME280;5307;42.548;22.968;2023-11-19T09:10:07;94066.22;;;3.22;75.47
10518;BME280;5307;42.548;22.968;2023-11-19T09:12:35;94067.97;;;3.50;74.63
10518;BME280;5307;42.548;22.968;2023-11-19T09:15:03;94073.06;;;3.41;74.77
10518;BME280;5307;42.548;22.968;2023-11-19T09:17:31;94070.00;;;3.39;74.30
10518;BME280;5307;42.548;22.968;2023-11-19T09:19:58;94061.78;;;3.56;73.72
10518;BME280;5307;42.548;22.968;2023-11-19T09:22:24;94063.44;;;3.36;73.27
10518;BME280;5307;42.548;22.968;2023-11-19T09:24:51;94058.97;;;3.71;73.13
10518;BME280;5307;42.548;22.968;2023-11-19T09:27:18;94054.53;;;4.32;72.91
10518;BME280;5307;42.548;22.968;2023-11-19T09:29:46;94056.69;;;4.48;72.08
10518;BME280;5307;42.548;22.968;2023-11-19T09:32:14;94045.41;;;4.57;70.51
10518;BME280;5307;42.548;22.968;2023-11-19T09:34:42;94041.06;;;4.29;69.91
10518;BME280;5307;42.548;22.968;2023-11-19T09:37:09;94027.59;;;4.90;69.14
10518;BME280;5307;42.548;22.968;2023-11-19T09:39:35;94018.06;;;4.51;68.15
10518;BME280;5307;42.548;22.968;2023-11-19T09:42:03;94003.69;;;5.42;68.24
10518;BME280;5307;42.548;22.968;2023-11-19T09:44:30;93999.31;;;4.67;66.47
10518;BME280;5307;42.548;22.968;2023-11-19T09:46:58;93989.72;;;5.94;65.71
10518;BME280;5307;42.548;22.968;2023-11-19T09:49:26;93987.88;;;5.64;65.39
10518;BME280;5307;42.548;22.968;2023-11-19T09:51:55;93981.34;;;6.28;64.75
10518;BME280;5307;42.548;22.968;2023-11-19T09:54:22;93987.50;;;6.09;64.05
10518;BME280;5307;42.548;22.968;2023-11-19T09:56:49;93983.56;;;6.73;64.04
10518;BME280;5307;42.548;22.968;2023-11-19T09:59:16;93981.25;;;6.71;62.57
10518;BME280;5307;42.548;22.968;2023-11-19T10:01:45;93980.75;;;7.32;62.24
10518;BME280;5307;42.548;22.968;2023-11-19T10:04:14;93974.59;;;5.70;61.55
10518;BME280;5307;42.548;22.968;2023-11-19T10:06:42;93980.06;;;6.13;61.30
10518;BME280;5307;42.548;22.968;2023-11-19T10:09:11;93975.06;;;6.71;61.38
10518;BME280;5307;42.548;22.968;2023-11-19T10:11:40;93971.47;;;6.58;61.00
10518;BME280;5307;42.548;22.968;2023-11-19T10:14:07;93972.28;;;6.94;60.24
10518;BME280;5307;42.548;22.968;2023-11-19T10:16:34;93967.50;;;7.51;59.60
10518;BME280;5307;42.548;22.968;2023-11-19T10:19:02;93969.78;;;7.20;57.88
10518;BME280;5307;42.548;22.968;2023-11-19T10:21:32;93963.31;;;7.95;58.31
10518;BME280;5307;42.548;22.968;2023-11-19T10:23:59;93965.72;;;6.36;58.07
10518;BME280;5307;42.548;22.968;2023-11-19T10:26:28;93954.41;;;6.17;59.69
10518;BME280;5307;42.548;22.968;2023-11-19T10:28:55;93951.63;;;6.80;57.85
10518;BME280;5307;42.548;22.968;2023-11-19T10:31:22;93942.28;;;7.34;57.21
10518;BME280;5307;42.548;22.968;2023-11-19T10:33:50;93952.97;;;7.73;56.87
10518;BME280;5307;42.548;22.968;2023-11-19T10:36:18;93947.81;;;7.47;56.97
10518;BME280;5307;42.548;22.968;2023-11-19T10:38:52;93948.91;;;7.65;56.69
10518;BME280;5307;42.548;22.968;2023-11-19T10:41:31;93946.78;;;7.40;56.18
10518;BME280;5307;42.548;22.968;2023-11-19T10:43:58;93939.19;;;6.99;56.97
10518;BME280;5307;42.548;22.968;2023-11-19T10:46:36;93934.63;;;7.12;56.83
10518;BME280;5307;42.548;22.968;2023-11-19T10:49:04;93953.44;;;6.47;57.33
10518;BME280;5307;42.548;22.968;2023-11-19T10:51:32;93944.03;;;7.73;58.58
10518;BME280;5307;42.548;22.968;2023-11-19T10:54:02;93931.41;;;7.50;57.06
10518;BME280;5307;42.548;22.968;2023-11-19T10:56:33;93938.00;;;7.17;55.84
10518;BME280;5307;42.548;22.968;2023-11-19T10:59:00;93931.56;;;7.27;57.66
10518;BME280;5307;42.548;22.968;2023-11-19T11:01:33;93938.19;;;7.42;58.66
10518;BME280;5307;42.548;22.968;2023-11-19T11:04:04;93925.13;;;7.21;57.35
10518;BME280;5307;42.548;22.968;2023-11-19T11:06:34;93908.31;;;7.42;56.25
10518;BME280;5307;42.548;22.968;2023-11-19T11:09:02;93906.66;;;6.04;57.64
10518;BME280;5307;42.548;22.968;2023-11-19T11:11:29;93909.03;;;6.02;58.32
10518;BME280;5307;42.548;22.968;2023-11-19T11:13:58;93915.56;;;7.32;58.58
10518;BME280;5307;42.548;22.968;2023-11-19T11:16:28;93912.03;;;7.32;58.28
10518;BME280;5307;42.548;22.968;2023-11-19T11:18:57;93916.78;;;6.59;57.41
10518;BME280;5307;42.548;22.968;2023-11-19T11:21:25;93912.31;;;7.37;58.49
10518;BME280;5307;42.548;22.968;2023-11-19T11:24:07;93902.13;;;7.09;58.78
10518;BME280;5307;42.548;22.968;2023-11-19T11:29:56;93894.47;;;6.32;58.61
10518;BME280;5307;42.548;22.968;2023-11-19T11:32:34;93894.91;;;6.10;59.18
10518;BME280;5307;42.548;22.968;2023-11-19T11:35:18;93899.41;;;7.09;58.47
10518;BME280;5307;42.548;22.968;2023-11-19T11:37:57;93903.88;;;6.99;58.59
10518;BME280;5307;42.548;22.968;2023-11-19T11:40:27;93896.69;;;6.93;57.65
10518;BME280;5307;42.548;22.968;2023-11-19T11:42:53;93885.91;;;7.22;58.20
10518;BME280;5307;42.548;22.968;2023-11-19T11:45:35;93879.19;;;7.42;58.18
10518;BME280;5307;42.548;22.968;2023-11-19T11:48:15;93878.06;;;6.75;57.51
10518;BME280;5307;42.548;22.968;2023-11-19T11:50:53;93873.97;;;7.19;57.75
10518;BME280;5307;42.548;22.968;2023-11-19T11:53:21;93869.03;;;7.47;57.90
10518;BME280;5307;42.548;22.968;2023-11-19T11:55:58;93871.91;;;7.39;56.51
10518;BME280;5307;42.548;22.968;2023-11-19T11:58:31;93877.50;;;7.00;56.54
10518;BME280;5307;42.548;22.968;2023-11-19T12:01:01;93874.63;;;6.91;56.36
10518;BME280;5307;42.548;22.968;2023-11-19T12:03:29;93877.00;;;7.05;57.31
10518;BME280;5307;42.548;22.968;2023-11-19T12:05:57;93874.72;;;7.20;57.82
10518;BME280;5307;42.548;22.968;2023-11-19T12:08:26;93859.34;;;6.44;58.43
10518;BME280;5307;42.548;22.968;2023-11-19T12:10:54;93866.38;;;6.78;58.18
10518;BME280;5307;42.548;22.968;2023-11-19T12:13:23;93877.59;;;6.96;57.81
10518;BME280;5307;42.548;22.968;2023-11-19T12:16:11;93874.00;;;6.83;58.40
10518;BME280;5307;42.548;22.968;2023-11-19T12:18:39;93873.34;;;7.11;59.15
10518;BME280;5307;42.548;22.968;2023-11-19T12:21:10;93870.72;;;6.92;56.17
10518;BME280;5307;42.548;22.968;2023-11-19T12:23:44;93857.19;;;6.72;56.21
10518;BME280;5307;42.548;22.968;2023-11-19T12:26:35;93853.63;;;6.75;57.06
10518;BME280;5307;42.548;22.968;2023-11-19T12:29:02;93851.19;;;6.64;57.62
10518;BME280;5307;42.548;22.968;2023-11-19T12:31:34;93845.81;;;6.61;57.34
10518;BME280;5307;42.548;22.968;2023-11-19T12:34:08;93831.19;;;6.38;58.02
10518;BME280;5307;42.548;22.968;2023-11-19T12:36:38;93848.19;;;6.59;57.47
10518;BME280;5307;42.548;22.968;2023-11-19T12:39:06;93836.22;;;6.40;56.78
10518;BME280;5307;42.548;22.968;2023-11-19T12:41:49;93838.41;;;6.97;58.13
10518;BME280;5307;42.548;22.968;2023-11-19T12:44:16;93833.38;;;6.27;56.65
10518;BME280;5307;42.548;22.968;2023-11-19T12:46:44;93836.13;;;6.43;56.38
10518;BME280;5307;42.548;22.968;2023-11-19T12:49:11;93825.44;;;6.36;56.06
10518;BME280;5307;42.548;22.968;2023-11-19T12:51:38;93824.03;;;6.48;56.71
10518;BME280;5307;42.548;22.968;2023-11-19T12:54:05;93818.09;;;6.17;56.41
10518;BME280;5307;42.548;22.968;2023-11-19T12:56:51;93814.28;;;6.50;57.47
10518;BME280;5307;42.548;22.968;2023-11-19T12:59:18;93816.13;;;6.53;57.48
10518;BME280;5307;42.548;22.968;2023-11-19T13:01:55;93819.03;;;6.63;57.66
10518;BME280;5307;42.548;22.968;2023-11-19T13:04:21;93833.53;;;6.20;56.57
10518;BME280;5307;42.548;22.968;2023-11-19T13:06:50;93828.03;;;6.23;56.13
10518;BME280;5307;42.548;22.968;2023-11-19T13:09:23;93827.63;;;6.25;55.93
10518;BME280;5307;42.548;22.968;2023-11-19T13:11:51;93818.84;;;6.17;55.58
10518;BME280;5307;42.548;22.968;2023-11-19T13:14:18;93814.09;;;6.41;56.34
10518;BME280;5307;42.548;22.968;2023-11-19T13:16:45;93820.72;;;6.73;55.57
10518;BME280;5307;42.548;22.968;2023-11-19T13:19:15;93817.34;;;6.33;55.58
10518;BME280;5307;42.548;22.968;2023-11-19T13:21:44;93814.66;;;6.33;55.46
10518;BME280;5307;42.548;22.968;2023-11-19T13:24:12;93811.66;;;6.63;55.93
10518;BME280;5307;42.548;22.968;2023-11-19T13:26:39;93819.44;;;6.61;55.72
10518;BME280;5307;42.548;22.968;2023-11-19T13:29:06;93825.16;;;6.67;54.75